sensor_id;sensor_type;location;lat;lon;timestamp;temperature;humidity
26164;DHT22;13914;48.178;11.716;2022-07-10T00:00:41;18.60;56.30
26164;DHT22;13914;48.178;11.716;2022-07-10T00:03:06;18.60;56.20
26164;DHT22;13914;48.178;11.716;2022-07-10T00:05:32;18.50;56.50
26164;DHT22;13914;48.178;11.716;2022-07-10T00:08:01;18.50;56.20
26164;DHT22;13914;48.178;11.716;2022-07-10T00:10:27;18.50;56.60
26164;DHT22;13914;48.178;11.716;2022-07-10T00:12:54;18.40;57.00
26164;DHT22;13914;48.178;11.716;2022-07-10T00:15:20;18.40;58.70
26164;DHT22;13914;48.178;11.716;2022-07-10T00:17:46;18.40;57.30
26164;DHT22;13914;48.178;11.716;2022-07-10T00:20:13;18.40;57.70
26164;DHT22;13914;48.178;11.716;2022-07-10T00:22:40;18.30;57.50
26164;DHT22;13914;48.178;11.716;2022-07-10T00:25:07;18.40;58.30
26164;DHT22;13914;48.178;11.716;2022-07-10T00:27:34;18.30;57.20
26164;DHT22;13914;48.178;11.716;2022-07-10T00:30:00;18.30;57.90
26164;DHT22;13914;48.178;11.716;2022-07-10T00:32:27;18.20;58.30
26164;DHT22;13914;48.178;11.716;2022-07-10T00:34:52;18.30;57.50
26164;DHT22;13914;48.178;11.716;2022-07-10T00:37:18;18.20;57.60
26164;DHT22;13914;48.178;11.716;2022-07-10T00:39:47;18.20;58.00
26164;DHT22;13914;48.178;11.716;2022-07-10T00:42:14;18.20;58.70
26164;DHT22;13914;48.178;11.716;2022-07-10T00:44:41;18.20;58.30
26164;DHT22;13914;48.178;11.716;2022-07-10T00:47:09;18.10;58.70
26164;DHT22;13914;48.178;11.716;2022-07-10T00:49:37;18.10;59.20
26164;DHT22;13914;48.178;11.716;2022-07-10T00:52:06;18.10;59.30
26164;DHT22;13914;48.178;11.716;2022-07-10T00:54:34;18.10;59.30
26164;DHT22;13914;48.178;11.716;2022-07-10T00:57:03;18.00;59.90
26164;DHT22;13914;48.178;11.716;2022-07-10T00:59:33;18.00;59.20
26164;DHT22;13914;48.178;11.716;2022-07-10T01:02:04;18.00;59.20
26164;DHT22;13914;48.178;11.716;2022-07-10T01:04:31;18.00;59.50
26164;DHT22;13914;48.178;11.716;2022-07-10T01:06:58;17.90;61.20
26164;DHT22;13914;48.178;11.716;2022-07-10T01:09:24;17.90;59.80
26164;DHT22;13914;48.178;11.716;2022-07-10T01:11:50;17.90;61.40
26164;DHT22;13914;48.178;11.716;2022-07-10T01:14:16;17.80;61.10
26164;DHT22;13914;48.178;11.716;2022-07-10T01:16:42;17.80;62.90
26164;DHT22;13914;48.178;11.716;2022-07-10T01:19:08;17.70;61.80
26164;DHT22;13914;48.178;11.716;2022-07-10T01:21:35;17.70;60.60
26164;DHT22;13914;48.178;11.716;2022-07-10T01:24:09;17.70;61.40
26164;DHT22;13914;48.178;11.716;2022-07-10T01:26:36;17.70;60.60
26164;DHT22;13914;48.178;11.716;2022-07-10T01:29:05;17.70;60.60
26164;DHT22;13914;48.178;11.716;2022-07-10T01:31:32;17.70;61.20
26164;DHT22;13914;48.178;11.716;2022-07-10T01:34:05;17.70;60.30
26164;DHT22;13914;48.178;11.716;2022-07-10T01:36:33;17.70;60.40
26164;DHT22;13914;48.178;11.716;2022-07-10T01:38:59;17.60;62.20
26164;DHT22;13914;48.178;11.716;2022-07-10T01:41:26;17.50;61.00
26164;DHT22;13914;48.178;11.716;2022-07-10T01:43:53;17.50;61.40
26164;DHT22;13914;48.178;11.716;2022-07-10T01:46:19;17.50;61.60
26164;DHT22;13914;48.178;11.716;2022-07-10T01:48:45;17.50;61.80
26164;DHT22;13914;48.178;11.716;2022-07-10T01:51:11;17.50;60.50
26164;DHT22;13914;48.178;11.716;2022-07-10T01:53:38;17.50;60.70
26164;DHT22;13914;48.178;11.716;2022-07-10T01:56:09;17.40;61.40
26164;DHT22;13914;48.178;11.716;2022-07-10T01:58:36;17.40;60.30
26164;DHT22;13914;48.178;11.716;2022-07-10T02:01:04;17.40;60.70
26164;DHT22;13914;48.178;11.716;2022-07-10T02:03:31;17.40;60.40
26164;DHT22;13914;48.178;11.716;2022-07-10T02:06:16;17.30;60.30
26164;DHT22;13914;48.178;11.716;2022-07-10T02:08:41;17.30;60.40
26164;DHT22;13914;48.178;11.716;2022-07-10T02:11:07;17.30;60.40
26164;DHT22;13914;48.178;11.716;2022-07-10T02:13:33;17.30;60.40
26164;DHT22;13914;48.178;11.716;2022-07-10T02:15:59;17.30;60.50
26164;DHT22;13914;48.178;11.716;2022-07-10T02:18:25;17.30;60.60
26164;DHT22;13914;48.178;11.716;2022-07-10T02:20:51;17.30;60.60
26164;DHT22;13914;48.178;11.716;2022-07-10T02:23:18;17.20;60.50
26164;DHT22;13914;48.178;11.716;2022-07-10T02:25:44;17.20;60.60
26164;DHT22;13914;48.178;11.716;2022-07-10T02:28:10;17.20;60.60
26164;DHT22;13914;48.178;11.716;2022-07-10T02:30:36;17.20;60.80
26164;DHT22;13914;48.178;11.716;2022-07-10T02:33:02;17.20;60.40
26164;DHT22;13914;48.178;11.716;2022-07-10T02:35:28;17.10;60.70
26164;DHT22;13914;48.178;11.716;2022-07-10T02:37:54;17.10;60.80
26164;DHT22;13914;48.178;11.716;2022-07-10T02:40:20;17.10;60.80
26164;DHT22;13914;48.178;11.716;2022-07-10T02:42:45;17.10;60.80
26164;DHT22;13914;48.178;11.716;2022-07-10T02:45:11;17.10;60.90
26164;DHT22;13914;48.178;11.716;2022-07-10T02:47:37;17.00;60.80
26164;DHT22;13914;48.178;11.716;2022-07-10T02:50:03;17.00;60.90
26164;DHT22;13914;48.178;11.716;2022-07-10T02:52:29;17.00;61.00
26164;DHT22;13914;48.178;11.716;2022-07-10T02:54:56;17.00;61.10
26164;DHT22;13914;48.178;11.716;2022-07-10T02:57:23;16.90;61.00
26164;DHT22;13914;48.178;11.716;2022-07-10T02:59:49;16.90;61.10
26164;DHT22;13914;48.178;11.716;2022-07-10T03:02:15;16.90;61.30
26164;DHT22;13914;48.178;11.716;2022-07-10T03:04:40;16.80;61.10
26164;DHT22;13914;48.178;11.716;2022-07-10T03:07:06;16.80;61.20
26164;DHT22;13914;48.178;11.716;2022-07-10T03:09:32;16.80;61.20
26164;DHT22;13914;48.178;11.716;2022-07-10T03:11:58;16.80;61.20
26164;DHT22;13914;48.178;11.716;2022-07-10T03:14:24;16.70;61.40
26164;DHT22;13914;48.178;11.716;2022-07-10T03:16:50;16.80;61.50
26164;DHT22;13914;48.178;11.716;2022-07-10T03:19:15;16.70;61.20
26164;DHT22;13914;48.178;11.716;2022-07-10T03:21:41;16.70;61.50
26164;DHT22;13914;48.178;11.716;2022-07-10T03:24:07;16.60;61.40
26164;DHT22;13914;48.178;11.716;2022-07-10T03:26:32;16.60;61.40
26164;DHT22;13914;48.178;11.716;2022-07-10T03:28:58;16.60;61.50
26164;DHT22;13914;48.178;11.716;2022-07-10T03:31:24;16.60;61.50
26164;DHT22;13914;48.178;11.716;2022-07-10T03:33:50;16.50;61.60
26164;DHT22;13914;48.178;11.716;2022-07-10T03:36:18;16.50;61.50
26164;DHT22;13914;48.178;11.716;2022-07-10T03:38:44;16.50;61.50
26164;DHT22;13914;48.178;11.716;2022-07-10T03:41:15;16.50;61.60
26164;DHT22;13914;48.178;11.716;2022-07-10T03:43:41;16.50;61.60
26164;DHT22;13914;48.178;11.716;2022-07-10T03:46:06;16.40;61.60
26164;DHT22;13914;48.178;11.716;2022-07-10T03:48:32;16.40;61.60
26164;DHT22;13914;48.178;11.716;2022-07-10T03:51:00;16.40;61.60
26164;DHT22;13914;48.178;11.716;2022-07-10T03:53:26;16.40;61.60
26164;DHT22;13914;48.178;11.716;2022-07-10T03:55:53;16.30;61.50
26164;DHT22;13914;48.178;11.716;2022-07-10T03:58:19;16.30;61.70
26164;DHT22;13914;48.178;11.716;2022-07-10T04:00:45;16.30;61.50
26164;DHT22;13914;48.178;11.716;2022-07-10T04:03:11;16.30;61.50
26164;DHT22;13914;48.178;11.716;2022-07-10T04:05:39;16.20;61.60
26164;DHT22;13914;48.178;11.716;2022-07-10T04:08:06;16.30;61.70
26164;DHT22;13914;48.178;11.716;2022-07-10T04:10:33;16.30;61.70
26164;DHT22;13914;48.178;11.716;2022-07-10T04:12:59;16.20;61.60
26164;DHT22;13914;48.178;11.716;2022-07-10T04:15:25;16.20;61.70
26164;DHT22;13914;48.178;11.716;2022-07-10T04:17:51;16.20;63.40
26164;DHT22;13914;48.178;11.716;2022-07-10T04:20:18;16.20;62.00
26164;DHT22;13914;48.178;11.716;2022-07-10T04:22:45;16.20;61.70
26164;DHT22;13914;48.178;11.716;2022-07-10T04:25:11;16.20;61.70
26164;DHT22;13914;48.178;11.716;2022-07-10T04:27:37;16.10;61.70
26164;DHT22;13914;48.178;11.716;2022-07-10T04:30:04;16.10;62.60
26164;DHT22;13914;48.178;11.716;2022-07-10T04:32:31;16.10;63.00
26164;DHT22;13914;48.178;11.716;2022-07-10T04:34:57;16.10;62.20
26164;DHT22;13914;48.178;11.716;2022-07-10T04:37:23;16.10;63.30
26164;DHT22;13914;48.178;11.716;2022-07-10T04:39:49;16.10;63.00
26164;DHT22;13914;48.178;11.716;2022-07-10T04:42:15;16.20;64.10
26164;DHT22;13914;48.178;11.716;2022-07-10T04:44:41;16.10;64.10
26164;DHT22;13914;48.178;11.716;2022-07-10T04:47:07;16.20;64.30
26164;DHT22;13914;48.178;11.716;2022-07-10T04:49:33;16.10;64.70
26164;DHT22;13914;48.178;11.716;2022-07-10T04:52:00;16.10;64.90
26164;DHT22;13914;48.178;11.716;2022-07-10T04:54:26;16.10;64.70
26164;DHT22;13914;48.178;11.716;2022-07-10T04:56:51;16.10;66.30
26164;DHT22;13914;48.178;11.716;2022-07-10T04:59:17;16.10;67.60
26164;DHT22;13914;48.178;11.716;2022-07-10T05:01:43;16.10;66.40
26164;DHT22;13914;48.178;11.716;2022-07-10T05:04:09;16.10;66.80
26164;DHT22;13914;48.178;11.716;2022-07-10T05:06:35;16.10;68.20
26164;DHT22;13914;48.178;11.716;2022-07-10T05:09:02;16.10;66.40
26164;DHT22;13914;48.178;11.716;2022-07-10T05:11:28;16.20;68.80
26164;DHT22;13914;48.178;11.716;2022-07-10T05:13:53;16.10;68.60
26164;DHT22;13914;48.178;11.716;2022-07-10T05:16:19;16.10;69.30
26164;DHT22;13914;48.178;11.716;2022-07-10T05:18:45;16.10;69.20
26164;DHT22;13914;48.178;11.716;2022-07-10T05:21:11;16.20;69.90
26164;DHT22;13914;48.178;11.716;2022-07-10T05:23:38;16.20;67.90
26164;DHT22;13914;48.178;11.716;2022-07-10T05:26:05;16.20;68.90
26164;DHT22;13914;48.178;11.716;2022-07-10T05:28:31;16.20;67.60
26164;DHT22;13914;48.178;11.716;2022-07-10T05:30:58;16.20;69.10
26164;DHT22;13914;48.178;11.716;2022-07-10T05:33:23;16.20;70.30
26164;DHT22;13914;48.178;11.716;2022-07-10T05:35:49;16.20;69.30
26164;DHT22;13914;48.178;11.716;2022-07-10T05:38:15;16.20;69.60
26164;DHT22;13914;48.178;11.716;2022-07-10T05:40:43;16.20;69.40
26164;DHT22;13914;48.178;11.716;2022-07-10T05:43:09;16.30;68.80
26164;DHT22;13914;48.178;11.716;2022-07-10T05:45:35;16.30;69.00
26164;DHT22;13914;48.178;11.716;2022-07-10T05:48:02;16.30;68.70
26164;DHT22;13914;48.178;11.716;2022-07-10T05:50:28;16.30;70.00
26164;DHT22;13914;48.178;11.716;2022-07-10T05:52:54;16.30;68.70
26164;DHT22;13914;48.178;11.716;2022-07-10T05:55:19;16.40;69.50
26164;DHT22;13914;48.178;11.716;2022-07-10T05:57:45;16.40;67.60
26164;DHT22;13914;48.178;11.716;2022-07-10T06:00:12;16.40;67.70
26164;DHT22;13914;48.178;11.716;2022-07-10T06:02:38;16.50;67.30
26164;DHT22;13914;48.178;11.716;2022-07-10T06:05:05;16.50;67.70
26164;DHT22;13914;48.178;11.716;2022-07-10T06:07:31;16.50;69.10
26164;DHT22;13914;48.178;11.716;2022-07-10T06:09:57;16.50;67.80
26164;DHT22;13914;48.178;11.716;2022-07-10T06:12:23;16.60;68.80
26164;DHT22;13914;48.178;11.716;2022-07-10T06:14:49;16.60;67.50
26164;DHT22;13914;48.178;11.716;2022-07-10T06:17:15;16.60;66.90
26164;DHT22;13914;48.178;11.716;2022-07-10T06:19:41;16.70;66.60
26164;DHT22;13914;48.178;11.716;2022-07-10T06:22:06;16.70;67.20
26164;DHT22;13914;48.178;11.716;2022-07-10T06:24:51;16.70;68.40
26164;DHT22;13914;48.178;11.716;2022-07-10T06:27:17;16.70;66.90
26164;DHT22;13914;48.178;11.716;2022-07-10T06:29:42;16.80;67.80
26164;DHT22;13914;48.178;11.716;2022-07-10T06:32:08;16.80;67.90
26164;DHT22;13914;48.178;11.716;2022-07-10T06:34:34;16.80;68.10
26164;DHT22;13914;48.178;11.716;2022-07-10T06:37:00;16.80;68.60
26164;DHT22;13914;48.178;11.716;2022-07-10T06:39:26;16.80;69.60
26164;DHT22;13914;48.178;11.716;2022-07-10T06:41:54;16.80;69.40
26164;DHT22;13914;48.178;11.716;2022-07-10T06:44:20;16.90;69.40
26164;DHT22;13914;48.178;11.716;2022-07-10T06:46:47;16.90;69.20
26164;DHT22;13914;48.178;11.716;2022-07-10T06:49:33;17.00;68.80
26164;DHT22;13914;48.178;11.716;2022-07-10T06:51:59;17.10;69.30
26164;DHT22;13914;48.178;11.716;2022-07-10T06:54:24;17.10;68.70
26164;DHT22;13914;48.178;11.716;2022-07-10T06:56:50;17.10;68.00
26164;DHT22;13914;48.178;11.716;2022-07-10T06:59:16;17.20;67.80
26164;DHT22;13914;48.178;11.716;2022-07-10T07:01:42;17.20;67.90
26164;DHT22;13914;48.178;11.716;2022-07-10T07:04:08;17.30;67.90
26164;DHT22;13914;48.178;11.716;2022-07-10T07:06:33;17.30;68.30
26164;DHT22;13914;48.178;11.716;2022-07-10T07:08:59;17.30;67.20
26164;DHT22;13914;48.178;11.716;2022-07-10T07:11:25;17.30;69.00
26164;DHT22;13914;48.178;11.716;2022-07-10T07:13:51;17.30;68.40
26164;DHT22;13914;48.178;11.716;2022-07-10T07:16:17;17.20;68.70
26164;DHT22;13914;48.178;11.716;2022-07-10T07:18:45;17.30;69.20
26164;DHT22;13914;48.178;11.716;2022-07-10T07:21:17;17.30;68.80
26164;DHT22;13914;48.178;11.716;2022-07-10T07:24:02;17.30;69.30
26164;DHT22;13914;48.178;11.716;2022-07-10T07:26:29;17.30;69.60
26164;DHT22;13914;48.178;11.716;2022-07-10T07:28:55;17.30;69.30
26164;DHT22;13914;48.178;11.716;2022-07-10T07:31:21;17.40;67.70
26164;DHT22;13914;48.178;11.716;2022-07-10T07:33:47;17.40;67.90
26164;DHT22;13914;48.178;11.716;2022-07-10T07:36:13;17.50;67.70
26164;DHT22;13914;48.178;11.716;2022-07-10T07:38:39;17.50;67.70
26164;DHT22;13914;48.178;11.716;2022-07-10T07:41:04;17.50;67.70
26164;DHT22;13914;48.178;11.716;2022-07-10T07:43:30;17.60;68.30
26164;DHT22;13914;48.178;11.716;2022-07-10T07:45:56;17.70;69.40
26164;DHT22;13914;48.178;11.716;2022-07-10T07:48:22;17.80;67.50
26164;DHT22;13914;48.178;11.716;2022-07-10T07:50:48;17.90;68.00
26164;DHT22;13914;48.178;11.716;2022-07-10T07:53:14;18.00;67.00
26164;DHT22;13914;48.178;11.716;2022-07-10T07:55:39;18.10;66.30
26164;DHT22;13914;48.178;11.716;2022-07-10T07:58:05;18.30;66.30
26164;DHT22;13914;48.178;11.716;2022-07-10T08:00:32;18.40;65.60
26164;DHT22;13914;48.178;11.716;2022-07-10T08:02:58;18.50;65.60
26164;DHT22;13914;48.178;11.716;2022-07-10T08:05:24;18.60;65.00
26164;DHT22;13914;48.178;11.716;2022-07-10T08:07:55;18.70;64.90
26164;DHT22;13914;48.178;11.716;2022-07-10T08:10:26;18.80;64.60
26164;DHT22;13914;48.178;11.716;2022-07-10T08:12:52;18.80;64.70
26164;DHT22;13914;48.178;11.716;2022-07-10T08:15:20;18.80;64.50
26164;DHT22;13914;48.178;11.716;2022-07-10T08:17:51;18.90;64.70
26164;DHT22;13914;48.178;11.716;2022-07-10T08:20:18;19.00;63.90
26164;DHT22;13914;48.178;11.716;2022-07-10T08:22:44;19.10;63.90
26164;DHT22;13914;48.178;11.716;2022-07-10T08:25:12;19.20;63.80
26164;DHT22;13914;48.178;11.716;2022-07-10T08:27:38;19.30;63.50
26164;DHT22;13914;48.178;11.716;2022-07-10T08:30:05;19.40;63.10
26164;DHT22;13914;48.178;11.716;2022-07-10T08:32:31;19.50;62.80
26164;DHT22;13914;48.178;11.716;2022-07-10T08:34:57;19.70;62.30
26164;DHT22;13914;48.178;11.716;2022-07-10T08:37:24;19.80;62.20
26164;DHT22;13914;48.178;11.716;2022-07-10T08:39:50;20.00;61.60
26164;DHT22;13914;48.178;11.716;2022-07-10T08:42:18;20.10;60.30
26164;DHT22;13914;48.178;11.716;2022-07-10T08:44:44;20.20;61.40
26164;DHT22;13914;48.178;11.716;2022-07-10T08:47:10;20.30;60.30
26164;DHT22;13914;48.178;11.716;2022-07-10T08:49:48;20.50;60.20
26164;DHT22;13914;48.178;11.716;2022-07-10T08:52:31;20.60;59.50
26164;DHT22;13914;48.178;11.716;2022-07-10T08:54:59;20.70;59.00
26164;DHT22;13914;48.178;11.716;2022-07-10T08:57:26;20.80;59.10
26164;DHT22;13914;48.178;11.716;2022-07-10T08:59:52;20.80;58.80
26164;DHT22;13914;48.178;11.716;2022-07-10T09:02:19;20.80;58.20
26164;DHT22;13914;48.178;11.716;2022-07-10T09:04:45;20.90;58.30
26164;DHT22;13914;48.178;11.716;2022-07-10T09:07:11;21.00;58.70
26164;DHT22;13914;48.178;11.716;2022-07-10T09:09:53;21.00;57.60
26164;DHT22;13914;48.178;11.716;2022-07-10T09:12:24;21.00;58.20
26164;DHT22;13914;48.178;11.716;2022-07-10T09:14:51;21.00;57.80
26164;DHT22;13914;48.178;11.716;2022-07-10T09:17:19;21.00;57.60
26164;DHT22;13914;48.178;11.716;2022-07-10T09:19:45;21.10;57.90
26164;DHT22;13914;48.178;11.716;2022-07-10T09:22:12;21.20;57.10
26164;DHT22;13914;48.178;11.716;2022-07-10T09:24:41;21.30;57.20
26164;DHT22;13914;48.178;11.716;2022-07-10T09:27:12;21.40;56.70
26164;DHT22;13914;48.178;11.716;2022-07-10T09:29:50;21.40;56.00
26164;DHT22;13914;48.178;11.716;2022-07-10T09:32:22;21.40;56.40
26164;DHT22;13914;48.178;11.716;2022-07-10T09:34:49;21.60;56.90
26164;DHT22;13914;48.178;11.716;2022-07-10T09:37:41;21.60;55.40
26164;DHT22;13914;48.178;11.716;2022-07-10T09:40:09;21.60;54.70
26164;DHT22;13914;48.178;11.716;2022-07-10T09:42:40;21.60;54.50
26164;DHT22;13914;48.178;11.716;2022-07-10T09:47:46;21.80;54.20
26164;DHT22;13914;48.178;11.716;2022-07-10T09:50:26;22.00;54.20
26164;DHT22;13914;48.178;11.716;2022-07-10T09:53:01;22.10;53.30
26164;DHT22;13914;48.178;11.716;2022-07-10T09:55:36;22.20;53.90
26164;DHT22;13914;48.178;11.716;2022-07-10T09:58:07;22.40;54.20
26164;DHT22;13914;48.178;11.716;2022-07-10T10:00:36;22.60;53.70
26164;DHT22;13914;48.178;11.716;2022-07-10T10:03:10;22.70;51.60
26164;DHT22;13914;48.178;11.716;2022-07-10T10:05:54;22.90;52.60
26164;DHT22;13914;48.178;11.716;2022-07-10T10:11:05;23.10;51.90
26164;DHT22;13914;48.178;11.716;2022-07-10T10:13:34;23.20;51.30
26164;DHT22;13914;48.178;11.716;2022-07-10T10:16:02;23.30;49.70
26164;DHT22;13914;48.178;11.716;2022-07-10T10:18:28;23.20;47.90
26164;DHT22;13914;48.178;11.716;2022-07-10T10:20:55;23.40;50.10
26164;DHT22;13914;48.178;11.716;2022-07-10T10:23:22;23.50;48.90
26164;DHT22;13914;48.178;11.716;2022-07-10T10:25:49;23.60;48.60
26164;DHT22;13914;48.178;11.716;2022-07-10T10:28:17;23.60;48.80
26164;DHT22;13914;48.178;11.716;2022-07-10T10:30:52;23.80;49.30
26164;DHT22;13914;48.178;11.716;2022-07-10T10:35:57;24.10;47.50
26164;DHT22;13914;48.178;11.716;2022-07-10T10:38:24;24.20;48.00
26164;DHT22;13914;48.178;11.716;2022-07-10T10:40:50;24.30;45.90
26164;DHT22;13914;48.178;11.716;2022-07-10T10:43:17;24.40;46.20
26164;DHT22;13914;48.178;11.716;2022-07-10T10:45:46;24.30;46.60
26164;DHT22;13914;48.178;11.716;2022-07-10T10:48:16;24.30;46.50
26164;DHT22;13914;48.178;11.716;2022-07-10T10:50:49;24.20;46.50
26164;DHT22;13914;48.178;11.716;2022-07-10T10:53:27;24.20;46.70
26164;DHT22;13914;48.178;11.716;2022-07-10T10:58:26;24.30;47.40
26164;DHT22;13914;48.178;11.716;2022-07-10T11:01:06;24.50;47.20
26164;DHT22;13914;48.178;11.716;2022-07-10T11:12:01;24.40;43.80
26164;DHT22;13914;48.178;11.716;2022-07-10T11:14:27;24.30;44.50
26164;DHT22;13914;48.178;11.716;2022-07-10T11:16:55;24.40;44.70
26164;DHT22;13914;48.178;11.716;2022-07-10T11:19:23;24.40;44.80
26164;DHT22;13914;48.178;11.716;2022-07-10T11:28:07;24.70;43.40
26164;DHT22;13914;48.178;11.716;2022-07-10T11:30:45;24.50;44.20
26164;DHT22;13914;48.178;11.716;2022-07-10T11:33:17;24.40;44.50
26164;DHT22;13914;48.178;11.716;2022-07-10T11:35:47;24.40;44.10
26164;DHT22;13914;48.178;11.716;2022-07-10T11:38:22;24.40;44.40
26164;DHT22;13914;48.178;11.716;2022-07-10T11:40:49;24.40;43.50
26164;DHT22;13914;48.178;11.716;2022-07-10T11:43:15;24.50;43.40
26164;DHT22;13914;48.178;11.716;2022-07-10T11:45:43;24.40;43.20
26164;DHT22;13914;48.178;11.716;2022-07-10T11:48:17;24.30;43.50
26164;DHT22;13914;48.178;11.716;2022-07-10T11:50:49;24.30;43.60
26164;DHT22;13914;48.178;11.716;2022-07-10T11:53:26;24.30;43.40
26164;DHT22;13914;48.178;11.716;2022-07-10T11:55:52;24.20;42.70
26164;DHT22;13914;48.178;11.716;2022-07-10T11:58:19;24.20;42.80
26164;DHT22;13914;48.178;11.716;2022-07-10T12:01:03;24.20;42.30
26164;DHT22;13914;48.178;11.716;2022-07-10T12:03:32;24.10;42.60
26164;DHT22;13914;48.178;11.716;2022-07-10T12:06:02;24.20;42.70
26164;DHT22;13914;48.178;11.716;2022-07-10T12:08:47;24.30;43.10
26164;DHT22;13914;48.178;11.716;2022-07-10T12:11:17;24.40;42.30
26164;DHT22;13914;48.178;11.716;2022-07-10T12:13:45;24.50;43.10
26164;DHT22;13914;48.178;11.716;2022-07-10T12:16:12;24.40;41.70
26164;DHT22;13914;48.178;11.716;2022-07-10T12:18:40;24.40;42.80
26164;DHT22;13914;48.178;11.716;2022-07-10T12:21:09;24.50;42.60
26164;DHT22;13914;48.178;11.716;2022-07-10T12:23:36;24.50;41.70
26164;DHT22;13914;48.178;11.716;2022-07-10T12:26:08;24.40;41.80
26164;DHT22;13914;48.178;11.716;2022-07-10T12:28:55;24.40;42.70
26164;DHT22;13914;48.178;11.716;2022-07-10T12:31:27;24.50;42.90
26164;DHT22;13914;48.178;11.716;2022-07-10T12:33:56;24.50;42.60
26164;DHT22;13914;48.178;11.716;2022-07-10T12:36:25;24.50;41.90
26164;DHT22;13914;48.178;11.716;2022-07-10T12:38:57;24.30;41.80
26164;DHT22;13914;48.178;11.716;2022-07-10T12:41:24;24.30;42.00
26164;DHT22;13914;48.178;11.716;2022-07-10T12:43:51;24.30;42.10
26164;DHT22;13914;48.178;11.716;2022-07-10T12:46:23;24.40;42.40
26164;DHT22;13914;48.178;11.716;2022-07-10T12:49:06;24.30;41.30
26164;DHT22;13914;48.178;11.716;2022-07-10T12:54:32;24.50;43.00
26164;DHT22;13914;48.178;11.716;2022-07-10T12:56:59;24.40;41.70
26164;DHT22;13914;48.178;11.716;2022-07-10T12:59:27;24.20;41.60
26164;DHT22;13914;48.178;11.716;2022-07-10T13:01:54;24.10;41.70
26164;DHT22;13914;48.178;11.716;2022-07-10T13:04:26;24.10;42.00
26164;DHT22;13914;48.178;11.716;2022-07-10T13:07:12;24.10;42.50
26164;DHT22;13914;48.178;11.716;2022-07-10T13:09:39;24.10;41.70
26164;DHT22;13914;48.178;11.716;2022-07-10T13:12:06;24.00;41.20
26164;DHT22;13914;48.178;11.716;2022-07-10T13:14:32;23.80;41.30
26164;DHT22;13914;48.178;11.716;2022-07-10T13:16:58;23.70;41.30
26164;DHT22;13914;48.178;11.716;2022-07-10T13:19:23;23.70;41.60
26164;DHT22;13914;48.178;11.716;2022-07-10T13:21:49;23.60;42.30
26164;DHT22;13914;48.178;11.716;2022-07-10T13:24:15;23.70;42.60
26164;DHT22;13914;48.178;11.716;2022-07-10T13:26:41;23.70;41.40
26164;DHT22;13914;48.178;11.716;2022-07-10T13:29:07;23.80;42.30
26164;DHT22;13914;48.178;11.716;2022-07-10T13:31:33;23.70;42.00
26164;DHT22;13914;48.178;11.716;2022-07-10T13:33:58;23.70;42.20
26164;DHT22;13914;48.178;11.716;2022-07-10T13:36:24;23.70;41.70
26164;DHT22;13914;48.178;11.716;2022-07-10T13:38:50;23.50;41.60
26164;DHT22;13914;48.178;11.716;2022-07-10T13:41:18;23.40;42.30
26164;DHT22;13914;48.178;11.716;2022-07-10T13:43:45;23.40;42.30
26164;DHT22;13914;48.178;11.716;2022-07-10T13:46:11;23.40;42.20
26164;DHT22;13914;48.178;11.716;2022-07-10T13:48:37;23.20;41.70
26164;DHT22;13914;48.178;11.716;2022-07-10T13:51:03;23.20;41.70
26164;DHT22;13914;48.178;11.716;2022-07-10T13:53:29;23.20;41.90
26164;DHT22;13914;48.178;11.716;2022-07-10T13:55:55;23.30;42.40
26164;DHT22;13914;48.178;11.716;2022-07-10T13:58:21;23.20;41.40
26164;DHT22;13914;48.178;11.716;2022-07-10T14:00:48;23.10;41.40
26164;DHT22;13914;48.178;11.716;2022-07-10T14:03:14;23.20;41.40
26164;DHT22;13914;48.178;11.716;2022-07-10T14:05:40;23.10;41.40
26164;DHT22;13914;48.178;11.716;2022-07-10T14:08:05;23.10;41.40
26164;DHT22;13914;48.178;11.716;2022-07-10T14:10:31;23.00;42.30
26164;DHT22;13914;48.178;11.716;2022-07-10T14:12:57;22.90;41.10
26164;DHT22;13914;48.178;11.716;2022-07-10T14:15:23;22.80;41.50
26164;DHT22;13914;48.178;11.716;2022-07-10T14:17:49;22.80;41.40
26164;DHT22;13914;48.178;11.716;2022-07-10T14:20:16;22.80;41.40
26164;DHT22;13914;48.178;11.716;2022-07-10T14:22:42;22.70;41.30
26164;DHT22;13914;48.178;11.716;2022-07-10T14:25:11;22.70;41.40
26164;DHT22;13914;48.178;11.716;2022-07-10T14:27:37;22.70;41.50
26164;DHT22;13914;48.178;11.716;2022-07-10T14:30:04;22.60;41.00
26164;DHT22;13914;48.178;11.716;2022-07-10T14:32:31;22.60;41.30
26164;DHT22;13914;48.178;11.716;2022-07-10T14:34:57;22.60;41.60
26164;DHT22;13914;48.178;11.716;2022-07-10T14:37:22;22.50;41.30
26164;DHT22;13914;48.178;11.716;2022-07-10T14:39:48;22.40;41.70
26164;DHT22;13914;48.178;11.716;2022-07-10T14:42:14;22.40;41.00
26164;DHT22;13914;48.178;11.716;2022-07-10T14:44:40;22.30;42.20
26164;DHT22;13914;48.178;11.716;2022-07-10T14:47:06;22.40;42.20
26164;DHT22;13914;48.178;11.716;2022-07-10T14:49:32;22.30;41.50
26164;DHT22;13914;48.178;11.716;2022-07-10T14:51:57;22.20;41.40
26164;DHT22;13914;48.178;11.716;2022-07-10T14:54:23;22.20;41.80
26164;DHT22;13914;48.178;11.716;2022-07-10T14:56:50;22.10;41.70
26164;DHT22;13914;48.178;11.716;2022-07-10T14:59:15;22.10;42.30
26164;DHT22;13914;48.178;11.716;2022-07-10T15:01:41;22.00;41.60
26164;DHT22;13914;48.178;11.716;2022-07-10T15:04:07;22.00;42.40
26164;DHT22;13914;48.178;11.716;2022-07-10T15:06:33;22.00;42.00
26164;DHT22;13914;48.178;11.716;2022-07-10T15:08:59;21.90;42.00
26164;DHT22;13914;48.178;11.716;2022-07-10T15:11:25;21.80;42.10
26164;DHT22;13914;48.178;11.716;2022-07-10T15:13:51;21.80;42.50
26164;DHT22;13914;48.178;11.716;2022-07-10T15:16:24;21.80;42.20
26164;DHT22;13914;48.178;11.716;2022-07-10T15:18:52;21.70;42.10
26164;DHT22;13914;48.178;11.716;2022-07-10T15:21:18;21.70;41.90
26164;DHT22;13914;48.178;11.716;2022-07-10T15:23:44;21.60;41.60
26164;DHT22;13914;48.178;11.716;2022-07-10T15:26:09;21.50;41.80
26164;DHT22;13914;48.178;11.716;2022-07-10T15:28:35;21.40;41.80
26164;DHT22;13914;48.178;11.716;2022-07-10T15:31:02;21.30;42.20
26164;DHT22;13914;48.178;11.716;2022-07-10T15:33:32;21.30;42.10
26164;DHT22;13914;48.178;11.716;2022-07-10T15:35:59;21.30;42.60
26164;DHT22;13914;48.178;11.716;2022-07-10T15:38:24;21.30;42.20
26164;DHT22;13914;48.178;11.716;2022-07-10T15:40:50;21.20;42.20
26164;DHT22;13914;48.178;11.716;2022-07-10T15:43:16;21.10;42.10
26164;DHT22;13914;48.178;11.716;2022-07-10T15:45:42;21.10;42.10